sensor_id;sensor_type;location;lat;lon;timestamp;pressure;altitude;pressure_sealevel;temperature;humidity
2268;BME280;11052;43.338;25.502;2022-10-24T00:01:42;101253.81;;;9.00;100.00
2268;BME280;11052;43.338;25.502;2022-10-24T00:04:10;101252.13;;;8.94;100.00
2268;BME280;11052;43.338;25.502;2022-10-24T00:06:39;101260.06;;;8.68;100.00
2268;BME280;11052;43.338;25.502;2022-10-24T00:09:07;101257.66;;;8.47;100.00
2268;BME280;11052;43.338;25.502;2022-10-24T00:11:34;101264.56;;;8.45;100.00
2268;BME280;11052;43.338;25.502;2022-10-24T00:14:03;101257.59;;;8.59;100.00
2268;BME280;11052;43.338;25.502;2022-10-24T00:16:30;101256.69;;;8.65;100.00
2268;BME280;11052;43.338;25.502;2022-10-24T00:18:57;101260.06;;;8.70;100.00
2268;BME280;11052;43.338;25.502;2022-10-24T00:21:26;101263.47;;;8.76;100.00
2268;BME280;11052;43.338;25.502;2022-10-24T00:23:53;101266.94;;;8.74;100.00
2268;BME280;11052;43.338;25.502;2022-10-24T00:26:20;101260.19;;;8.54;100.00
2268;BME280;11052;43.338;25.502;2022-10-24T00:28:47;101260.22;;;8.50;100.00
2268;BME280;11052;43.338;25.502;2022-10-24T00:31:17;101253.41;;;8.38;100.00
2268;BME280;11052;43.338;25.502;2022-10-24T00:33:45;101257.72;;;8.32;100.00
2268;BME280;11052;43.338;25.502;2022-10-24T00:36:14;101253.41;;;8.32;100.00
2268;BME280;11052;43.338;25.502;2022-10-24T00:38:43;101256.88;;;8.27;100.00
2268;BME280;11052;43.338;25.502;2022-10-24T00:41:13;101253.47;;;8.21;100.00
2268;BME280;11052;43.338;25.502;2022-10-24T00:43:41;101256.03;;;8.25;100.00
2268;BME280;11052;43.338;25.502;2022-10-24T00:46:08;101248.25;;;8.29;100.00
2268;BME280;11052;43.338;25.502;2022-10-24T00:48:37;101245.69;;;8.23;100.00
2268;BME280;11052;43.338;25.502;2022-10-24T00:51:18;101248.31;;;8.20;100.00
2268;BME280;11052;43.338;25.502;2022-10-24T00:53:50;101244.88;;;8.16;100.00
2268;BME280;11052;43.338;25.502;2022-10-24T00:56:19;101242.28;;;8.16;100.00
2268;BME280;11052;43.338;25.502;2022-10-24T00:58:48;101243.13;;;8.21;100.00
2268;BME280;11052;43.338;25.502;2022-10-24T01:01:15;101242.25;;;8.24;100.00
2268;BME280;11052;43.338;25.502;2022-10-24T01:03:42;101244.88;;;8.13;100.00
2268;BME280;11052;43.338;25.502;2022-10-24T01:06:26;101240.56;;;8.17;100.00
2268;BME280;11052;43.338;25.502;2022-10-24T01:09:04;101242.41;;;7.87;100.00
2268;BME280;11052;43.338;25.502;2022-10-24T01:11:42;101236.38;;;7.90;100.00
2268;BME280;11052;43.338;25.502;2022-10-24T01:14:20;101233.88;;;7.78;100.00
2268;BME280;11052;43.338;25.502;2022-10-24T01:16:55;101235.63;;;7.74;100.00
2268;BME280;11052;43.338;25.502;2022-10-24T01:19:47;101226.16;;;7.73;100.00
2268;BME280;11052;43.338;25.502;2022-10-24T01:22:25;101231.25;;;7.81;100.00
2268;BME280;11052;43.338;25.502;2022-10-24T01:25:05;101227.81;;;7.85;100.00
2268;BME280;11052;43.338;25.502;2022-10-24T01:28:00;101232.16;;;7.74;100.00
2268;BME280;11052;43.338;25.502;2022-10-24T01:30:37;101227.00;;;7.74;100.00
2268;BME280;11052;43.338;25.502;2022-10-24T01:33:13;101234.78;;;7.68;100.00
2268;BME280;11052;43.338;25.502;2022-10-24T01:35:48;101227.03;;;7.63;100.00
2268;BME280;11052;43.338;25.502;2022-10-24T01:38:20;101222.75;;;7.64;100.00
2268;BME280;11052;43.338;25.502;2022-10-24T01:40:52;101231.34;;;7.67;100.00
2268;BME280;11052;43.338;25.502;2022-10-24T01:43:25;101225.41;;;7.30;100.00
2268;BME280;11052;43.338;25.502;2022-10-24T01:45:57;101233.16;;;7.12;100.00
2268;BME280;11052;43.338;25.502;2022-10-24T01:48:27;101233.16;;;7.15;100.00
2268;BME280;11052;43.338;25.502;2022-10-24T01:50:59;101234.88;;;7.17;100.00
2268;BME280;11052;43.338;25.502;2022-10-24T01:53:29;101234.88;;;7.16;100.00
2268;BME280;11052;43.338;25.502;2022-10-24T01:55:57;101234.03;;;7.14;100.00
2268;BME280;11052;43.338;25.502;2022-10-24T01:58:25;101234.03;;;7.08;100.00
2268;BME280;11052;43.338;25.502;2022-10-24T02:00:56;101223.72;;;7.03;100.00
2268;BME280;11052;43.338;25.502;2022-10-24T02:03:31;101223.72;;;7.00;100.00
2268;BME280;11052;43.338;25.502;2022-10-24T02:06:03;101220.28;;;7.03;100.00
2268;BME280;11052;43.338;25.502;2022-10-24T02:08:34;101225.44;;;7.06;100.00
2268;BME280;11052;43.338;25.502;2022-10-24T02:11:05;101229.72;;;7.08;100.00
2268;BME280;11052;43.338;25.502;2022-10-24T02:13:38;101229.72;;;7.01;100.00
2268;BME280;11052;43.338;25.502;2022-10-24T02:16:13;101235.75;;;6.71;100.00
2268;BME280;11052;43.338;25.502;2022-10-24T02:18:41;101234.06;;;6.77;100.00
2268;BME280;11052;43.338;25.502;2022-10-24T02:21:16;101229.75;;;6.85;100.00
2268;BME280;11052;43.338;25.502;2022-10-24T02:23:51;101237.50;;;6.90;100.00
2268;BME280;11052;43.338;25.502;2022-10-24T02:26:25;101245.19;;;6.98;100.00
2268;BME280;11052;43.338;25.502;2022-10-24T02:28:57;101237.47;;;7.01;100.00
2268;BME280;11052;43.338;25.502;2022-10-24T02:31:30;101248.63;;;7.00;100.00
2268;BME280;11052;43.338;25.502;2022-10-24T02:34:00;101243.47;;;7.03;100.00
2268;BME280;11052;43.338;25.502;2022-10-24T02:36:31;101240.91;;;7.00;100.00
2268;BME280;11052;43.338;25.502;2022-10-24T02:39:00;101237.47;;;7.01;100.00
2268;BME280;11052;43.338;25.502;2022-10-24T02:41:31;101236.59;;;7.03;100.00
2268;BME280;11052;43.338;25.502;2022-10-24T02:44:00;101234.03;;;7.05;100.00
2268;BME280;11052;43.338;25.502;2022-10-24T02:46:30;101235.75;;;7.00;100.00
2268;BME280;11052;43.338;25.502;2022-10-24T02:49:00;101234.06;;;6.93;100.00
2268;BME280;11052;43.338;25.502;2022-10-24T02:51:30;101240.06;;;6.88;100.00
2268;BME280;11052;43.338;25.502;2022-10-24T02:53:59;101235.78;;;6.81;100.00
2268;BME280;11052;43.338;25.502;2022-10-24T02:56:28;101240.94;;;6.80;100.00
2268;BME280;11052;43.338;25.502;2022-10-24T02:58:55;101233.19;;;6.84;100.00
2268;BME280;11052;43.338;25.502;2022-10-24T03:01:22;101236.63;;;6.83;100.00
2268;BME280;11052;43.338;25.502;2022-10-24T03:03:51;101234.91;;;6.85;100.00
2268;BME280;11052;43.338;25.502;2022-10-24T03:06:18;101237.50;;;6.87;100.00
2268;BME280;11052;43.338;25.502;2022-10-24T03:08:45;101238.34;;;6.81;100.00
2268;BME280;11052;43.338;25.502;2022-10-24T03:11:12;101238.34;;;6.78;100.00
2268;BME280;11052;43.338;25.502;2022-10-24T03:13:39;101234.91;;;6.76;100.00
2268;BME280;11052;43.338;25.502;2022-10-24T03:16:07;101241.78;;;6.70;100.00
2268;BME280;11052;43.338;25.502;2022-10-24T03:18:34;101234.03;;;6.65;100.00
2268;BME280;11052;43.338;25.502;2022-10-24T03:21:02;101235.75;;;6.66;100.00
2268;BME280;11052;43.338;25.502;2022-10-24T03:23:29;101233.19;;;6.72;100.00
2268;BME280;11052;43.338;25.502;2022-10-24T03:25:57;101237.47;;;6.69;100.00
2268;BME280;11052;43.338;25.502;2022-10-24T03:28:25;101228.03;;;6.71;100.00
2268;BME280;11052;43.338;25.502;2022-10-24T03:30:52;101231.47;;;6.74;100.00
2268;BME280;11052;43.338;25.502;2022-10-24T03:33:21;101243.47;;;6.62;100.00
2268;BME280;11052;43.338;25.502;2022-10-24T03:35:51;101234.03;;;6.50;100.00
2268;BME280;11052;43.338;25.502;2022-10-24T03:38:21;101230.59;;;6.46;100.00
2268;BME280;11052;43.338;25.502;2022-10-24T03:40:48;101234.88;;;6.47;100.00
2268;BME280;11052;43.338;25.502;2022-10-24T03:43:17;101240.88;;;6.51;100.00
2268;BME280;11052;43.338;25.502;2022-10-24T03:45:44;101230.56;;;6.43;100.00
2268;BME280;11052;43.338;25.502;2022-10-24T03:48:11;101234.84;;;6.37;100.00
2268;BME280;11052;43.338;25.502;2022-10-24T03:50:39;101236.56;;;6.30;100.00
2268;BME280;11052;43.338;25.502;2022-10-24T03:53:06;101242.59;;;6.40;100.00
2268;BME280;11052;43.338;25.502;2022-10-24T03:55:35;101242.56;;;6.32;100.00
2268;BME280;11052;43.338;25.502;2022-10-24T03:58:02;101244.28;;;6.36;100.00
2268;BME280;11052;43.338;25.502;2022-10-24T04:00:29;101246.88;;;6.38;100.00
2268;BME280;11052;43.338;25.502;2022-10-24T04:02:59;101240.84;;;6.36;100.00
2268;BME280;11052;43.338;25.502;2022-10-24T04:05:26;101234.00;;;6.38;100.00
2268;BME280;11052;43.338;25.502;2022-10-24T04:07:53;101233.13;;;6.36;100.00
2268;BME280;11052;43.338;25.502;2022-10-24T04:10:20;101237.44;;;6.38;100.00
2268;BME280;11052;43.338;25.502;2022-10-24T04:12:49;101242.56;;;6.38;100.00
2268;BME280;11052;43.338;25.502;2022-10-24T04:15:16;101238.28;;;6.37;100.00
2268;BME280;11052;43.338;25.502;2022-10-24T04:17:43;101231.41;;;6.38;100.00
2268;BME280;11052;43.338;25.502;2022-10-24T04:20:11;101234.00;;;6.38;100.00
2268;BME280;11052;43.338;25.502;2022-10-24T04:22:38;101240.84;;;6.30;100.00
2268;BME280;11052;43.338;25.502;2022-10-24T04:25:05;101238.19;;;6.07;100.00
2268;BME280;11052;43.338;25.502;2022-10-24T04:27:32;101237.34;;;5.97;100.00
2268;BME280;11052;43.338;25.502;2022-10-24T04:30:03;101239.91;;;5.94;100.00
2268;BME280;11052;43.338;25.502;2022-10-24T04:32:30;101236.50;;;6.04;100.00
2268;BME280;11052;43.338;25.502;2022-10-24T04:34:57;101243.38;;;6.13;100.00
2268;BME280;11052;43.338;25.502;2022-10-24T04:37:24;101233.94;;;6.16;100.00
2268;BME280;11052;43.338;25.502;2022-10-24T04:39:51;101241.69;;;6.22;100.00
2268;BME280;11052;43.338;25.502;2022-10-24T04:42:19;101239.09;;;6.19;100.00
2268;BME280;11052;43.338;25.502;2022-10-24T04:44:47;101237.38;;;6.20;100.00
2268;BME280;11052;43.338;25.502;2022-10-24T04:47:15;101239.94;;;6.17;100.00
2268;BME280;11052;43.338;25.502;2022-10-24T04:49:43;101243.38;;;6.17;100.00
2268;BME280;11052;43.338;25.502;2022-10-24T04:52:10;101239.09;;;6.19;100.00
2268;BME280;11052;43.338;25.502;2022-10-24T04:54:37;101233.97;;;6.25;100.00
2268;BME280;11052;43.338;25.502;2022-10-24T04:57:04;101235.69;;;6.33;100.00
2268;BME280;11052;43.338;25.502;2022-10-24T04:59:31;101239.16;;;6.47;100.00
2268;BME280;11052;43.338;25.502;2022-10-24T05:01:58;101246.06;;;6.63;100.00
2268;BME280;11052;43.338;25.502;2022-10-24T05:04:27;101246.94;;;6.86;100.00
2268;BME280;11052;43.338;25.502;2022-10-24T05:06:54;101245.19;;;7.25;100.00
2268;BME280;11052;43.338;25.502;2022-10-24T05:09:21;101244.25;;;7.66;100.00
2268;BME280;11052;43.338;25.502;2022-10-24T05:11:48;101239.03;;;7.76;100.00
2268;BME280;11052;43.338;25.502;2022-10-24T05:14:15;101249.41;;;7.63;100.00
2268;BME280;11052;43.338;25.502;2022-10-24T05:16:42;101247.72;;;7.52;100.00
2268;BME280;11052;43.338;25.502;2022-10-24T05:19:12;101250.25;;;7.65;100.00
2268;BME280;11052;43.338;25.502;2022-10-24T05:21:41;101244.16;;;7.81;100.00
2268;BME280;11052;43.338;25.502;2022-10-24T05:24:08;101245.78;;;8.06;100.00
2268;BME280;11052;43.338;25.502;2022-10-24T05:26:36;101250.66;;;8.66;100.00
2268;BME280;11052;43.338;25.502;2022-10-24T05:29:06;101256.34;;;9.06;100.00
2268;BME280;11052;43.338;25.502;2022-10-24T05:31:33;101246.75;;;9.18;100.00
2268;BME280;11052;43.338;25.502;2022-10-24T05:34:00;101251.78;;;9.35;100.00
2268;BME280;11052;43.338;25.502;2022-10-24T05:36:28;101255.75;;;9.64;100.00
2268;BME280;11052;43.338;25.502;2022-10-24T05:38:56;101260.59;;;9.94;100.00
2268;BME280;11052;43.338;25.502;2022-10-24T05:41:23;101264.63;;;10.20;100.00
2268;BME280;11052;43.338;25.502;2022-10-24T05:43:51;101258.38;;;10.36;100.00
2268;BME280;11052;43.338;25.502;2022-10-24T05:46:18;101258.78;;;10.65;100.00
2268;BME280;11052;43.338;25.502;2022-10-24T05:48:45;101262.97;;;10.74;100.00
2268;BME280;11052;43.338;25.502;2022-10-24T05:51:12;101262.84;;;10.83;100.00
2268;BME280;11052;43.338;25.502;2022-10-24T05:53:40;101266.81;;;11.04;100.00
2268;BME280;11052;43.338;25.502;2022-10-24T05:56:09;101261.28;;;11.25;100.00
2268;BME280;11052;43.338;25.502;2022-10-24T06:04:57;101267.56;;;12.04;100.00
2268;BME280;11052;43.338;25.502;2022-10-24T06:07:24;101261.72;;;12.33;100.00
2268;BME280;11052;43.338;25.502;2022-10-24T06:09:51;101266.97;;;12.70;100.00
2268;BME280;11052;43.338;25.502;2022-10-24T06:12:20;101269.03;;;12.93;100.00
2268;BME280;11052;43.338;25.502;2022-10-24T06:14:47;101268.28;;;13.24;100.00
2268;BME280;11052;43.338;25.502;2022-10-24T06:17:14;101271.41;;;13.36;100.00
2268;BME280;11052;43.338;25.502;2022-10-24T06:19:41;101267.19;;;13.65;100.00
2268;BME280;11052;43.338;25.502;2022-10-24T06:22:09;101263.72;;;13.95;100.00
2268;BME280;11052;43.338;25.502;2022-10-24T06:24:37;101275.50;;;14.38;100.00
2268;BME280;11052;43.338;25.502;2022-10-24T06:27:05;101265.28;;;14.60;100.00
2268;BME280;11052;43.338;25.502;2022-10-24T06:29:34;101263.69;;;14.82;100.00
2268;BME280;11052;43.338;25.502;2022-10-24T06:32:01;101262.13;;;15.03;100.00
2268;BME280;11052;43.338;25.502;2022-10-24T06:34:29;101269.66;;;15.38;100.00
2268;BME280;11052;43.338;25.502;2022-10-24T06:36:56;101265.78;;;15.24;100.00
2268;BME280;11052;43.338;25.502;2022-10-24T06:39:23;101269.16;;;15.01;100.00
2268;BME280;11052;43.338;25.502;2022-10-24T06:41:50;101271.00;;;15.24;100.00
2268;BME280;11052;43.338;25.502;2022-10-24T06:44:18;101272.16;;;15.41;100.00
2268;BME280;11052;43.338;25.502;2022-10-24T06:46:46;101271.94;;;15.48;100.00
2268;BME280;11052;43.338;25.502;2022-10-24T06:49:25;101277.97;;;15.74;100.00
2268;BME280;11052;43.338;25.502;2022-10-24T06:51:52;101274.13;;;16.08;100.00
2268;BME280;11052;43.338;25.502;2022-10-24T06:54:19;101275.06;;;15.82;100.00
2268;BME280;11052;43.338;25.502;2022-10-24T06:56:46;101262.59;;;15.40;100.00
2268;BME280;11052;43.338;25.502;2022-10-24T06:59:15;101259.84;;;15.45;100.00
2268;BME280;11052;43.338;25.502;2022-10-24T07:01:43;101261.75;;;15.65;100.00
2268;BME280;11052;43.338;25.502;2022-10-24T07:04:12;101262.00;;;15.82;100.00
2268;BME280;11052;43.338;25.502;2022-10-24T07:06:39;101266.31;;;15.83;100.00
2268;BME280;11052;43.338;25.502;2022-10-24T07:09:06;101272.81;;;16.20;100.00
2268;BME280;11052;43.338;25.502;2022-10-24T07:11:33;101275.09;;;16.51;100.00
2268;BME280;11052;43.338;25.502;2022-10-24T07:14:00;101276.34;;;16.86;100.00
2268;BME280;11052;43.338;25.502;2022-10-24T07:16:31;101274.44;;;17.11;100.00
2268;BME280;11052;43.338;25.502;2022-10-24T07:18:58;101272.66;;;17.12;100.00
2268;BME280;11052;43.338;25.502;2022-10-24T07:21:28;101275.97;;;16.95;100.00
2268;BME280;11052;43.338;25.502;2022-10-24T07:23:56;101273.06;;;17.23;100.00
2268;BME280;11052;43.338;25.502;2022-10-24T07:26:24;101269.69;;;17.40;100.00
2268;BME280;11052;43.338;25.502;2022-10-24T07:28:53;101262.09;;;17.33;100.00
2268;BME280;11052;43.338;25.502;2022-10-24T07:31:24;101267.44;;;17.73;100.00
2268;BME280;11052;43.338;25.502;2022-10-24T07:33:52;101265.28;;;18.20;100.00
2268;BME280;11052;43.338;25.502;2022-10-24T07:36:21;101278.75;;;18.69;100.00
2268;BME280;11052;43.338;25.502;2022-10-24T07:38:53;101267.88;;;18.93;100.00
2268;BME280;11052;43.338;25.502;2022-10-24T07:41:20;101266.66;;;19.18;100.00
2268;BME280;11052;43.338;25.502;2022-10-24T07:43:49;101267.03;;;19.27;99.09
2268;BME280;11052;43.338;25.502;2022-10-24T07:46:18;101267.66;;;19.32;92.30
2268;BME280;11052;43.338;25.502;2022-10-24T07:48:47;101264.81;;;19.03;93.09
2268;BME280;11052;43.338;25.502;2022-10-24T07:51:14;101255.03;;;19.22;93.46
2268;BME280;11052;43.338;25.502;2022-10-24T07:53:42;101258.06;;;19.31;95.77
2268;BME280;11052;43.338;25.502;2022-10-24T07:56:12;101254.41;;;19.34;86.30
2268;BME280;11052;43.338;25.502;2022-10-24T07:58:41;101252.66;;;19.35;89.88
2268;BME280;11052;43.338;25.502;2022-10-24T08:01:10;101254.81;;;19.61;88.52
2268;BME280;11052;43.338;25.502;2022-10-24T08:03:37;101247.91;;;19.76;85.48
2268;BME280;11052;43.338;25.502;2022-10-24T08:06:05;101253.56;;;19.51;87.72
2268;BME280;11052;43.338;25.502;2022-10-24T08:08:33;101248.63;;;19.62;83.30
2268;BME280;11052;43.338;25.502;2022-10-24T08:11:01;101265.50;;;19.91;84.68
2268;BME280;11052;43.338;25.502;2022-10-24T08:13:33;101256.16;;;20.17;78.06
2268;BME280;11052;43.338;25.502;2022-10-24T08:16:00;101256.16;;;20.17;76.24
2268;BME280;11052;43.338;25.502;2022-10-24T08:18:29;101252.44;;;20.21;76.36
2268;BME280;11052;43.338;25.502;2022-10-24T08:20:57;101253.63;;;20.31;80.70
2268;BME280;11052;43.338;25.502;2022-10-24T08:23:24;101252.97;;;20.59;79.82
2268;BME280;11052;43.338;25.502;2022-10-24T08:25:52;101251.03;;;20.63;74.53
2268;BME280;11052;43.338;25.502;2022-10-24T08:28:19;101255.09;;;20.52;74.50
2268;BME280;11052;43.338;25.502;2022-10-24T08:30:56;101249.00;;;20.52;74.77
2268;BME280;11052;43.338;25.502;2022-10-24T08:33:23;101248.38;;;20.78;76.01
2268;BME280;11052;43.338;25.502;2022-10-24T08:35:51;101250.00;;;20.95;67.70
2268;BME280;11052;43.338;25.502;2022-10-24T08:38:18;101249.91;;;20.97;65.43
2268;BME280;11052;43.338;25.502;2022-10-24T08:40:46;101243.44;;;21.02;66.35
2268;BME280;11052;43.338;25.502;2022-10-24T08:43:15;101246.72;;;21.21;66.27
2268;BME280;11052;43.338;25.502;2022-10-24T08:45:52;101238.47;;;21.56;66.19
2268;BME280;11052;43.338;25.502;2022-10-24T08:48:26;101236.00;;;21.67;65.62
2268;BME280;11052;43.338;25.502;2022-10-24T08:51:08;101244.03;;;21.80;64.39
2268;BME280;11052;43.338;25.502;2022-10-24T08:53:38;101238.16;;;21.89;63.18
2268;BME280;11052;43.338;25.502;2022-10-24T08:56:08;101229.03;;;21.95;63.31
2268;BME280;11052;43.338;25.502;2022-10-24T08:58:42;101235.63;;;21.87;62.60
2268;BME280;11052;43.338;25.502;2022-10-24T09:01:15;101227.13;;;21.97;61.50
2268;BME280;11052;43.338;25.502;2022-10-24T09:03:46;101219.13;;;22.12;61.28
2268;BME280;11052;43.338;25.502;2022-10-24T09:06:16;101217.03;;;22.17;61.91
2268;BME280;11052;43.338;25.502;2022-10-24T09:08:50;101214.66;;;22.27;60.23
2268;BME280;11052;43.338;25.502;2022-10-24T09:11:23;101211.28;;;22.25;60.24
2268;BME280;11052;43.338;25.502;2022-10-24T09:13:53;101217.03;;;22.17;61.14
2268;BME280;11052;43.338;25.502;2022-10-24T09:16:22;101210.72;;;22.20;62.15
2268;BME280;11052;43.338;25.502;2022-10-24T09:18:53;101221.75;;;22.27;60.38
2268;BME280;11052;43.338;25.502;2022-10-24T09:21:21;101211.72;;;22.32;59.18
2268;BME280;11052;43.338;25.502;2022-10-24T09:23:49;101215.16;;;22.46;62.61
2268;BME280;11052;43.338;25.502;2022-10-24T09:26:22;101203.72;;;22.73;58.57
2268;BME280;11052;43.338;25.502;2022-10-24T09:28:50;101210.13;;;22.83;60.15
2268;BME280;11052;43.338;25.502;2022-10-24T09:31:22;101204.09;;;22.94;59.81
2268;BME280;11052;43.338;25.502;2022-10-24T09:33:52;101197.78;;;23.09;59.83
2268;BME280;11052;43.338;25.502;2022-10-24T09:36:21;101189.13;;;23.19;57.70
2268;BME280;11052;43.338;25.502;2022-10-24T09:38:50;101187.72;;;23.01;56.91
2268;BME280;11052;43.338;25.502;2022-10-24T09:41:21;101189.31;;;23.16;58.45
2268;BME280;11052;43.338;25.502;2022-10-24T09:43:51;101183.50;;;22.99;56.14
2268;BME280;11052;43.338;25.502;2022-10-24T09:46:22;101175.34;;;23.02;58.02
2268;BME280;11052;43.338;25.502;2022-10-24T09:48:54;101160.97;;;23.06;57.47
2268;BME280;11052;43.338;25.502;2022-10-24T09:51:28;101166.34;;;23.04;55.91
2268;BME280;11052;43.338;25.502;2022-10-24T09:54:05;101159.47;;;23.14;56.66
2268;BME280;11052;43.338;25.502;2022-10-24T09:56:35;101169.41;;;23.49;56.74
2268;BME280;11052;43.338;25.502;2022-10-24T09:59:30;101161.56;;;23.47;56.03
2268;BME280;11052;43.338;25.502;2022-10-24T10:02:22;101163.69;;;23.68;56.00
2268;BME280;11052;43.338;25.502;2022-10-24T10:05:14;101159.44;;;23.52;55.82
2268;BME280;11052;43.338;25.502;2022-10-24T10:08:17;101162.41;;;23.73;54.43
2268;BME280;11052;43.338;25.502;2022-10-24T10:10:57;101161.09;;;23.92;54.22
2268;BME280;11052;43.338;25.502;2022-10-24T10:13:26;101155.56;;;23.95;53.53
2268;BME280;11052;43.338;25.502;2022-10-24T10:15:55;101149.16;;;24.10;52.93
2268;BME280;11052;43.338;25.502;2022-10-24T10:18:30;101149.06;;;24.35;51.39
2268;BME280;11052;43.338;25.502;2022-10-24T10:21:06;101146.41;;;24.35;51.31
2268;BME280;11052;43.338;25.502;2022-10-24T10:23:36;101146.03;;;24.64;50.87
2268;BME280;11052;43.338;25.502;2022-10-24T10:26:17;101142.84;;;24.82;49.26
2268;BME280;11052;43.338;25.502;2022-10-24T10:28:52;101139.09;;;24.85;48.38
2268;BME280;11052;43.338;25.502;2022-10-24T10:31:24;101145.50;;;24.94;48.80
2268;BME280;11052;43.338;25.502;2022-10-24T10:34:10;101145.19;;;24.98;47.39
2268;BME280;11052;43.338;25.502;2022-10-24T10:36:54;101134.72;;;25.08;47.58
2268;BME280;11052;43.338;25.502;2022-10-24T10:39:38;101139.16;;;24.96;45.21
2268;BME280;11052;43.338;25.502;2022-10-24T10:42:09;101139.81;;;24.76;46.88
2268;BME280;11052;43.338;25.502;2022-10-24T10:44:53;101126.41;;;24.66;45.34
2268;BME280;11052;43.338;25.502;2022-10-24T10:47:33;101132.03;;;24.62;46.87
2268;BME280;11052;43.338;25.502;2022-10-24T10:50:17;101127.84;;;24.70;46.02
2268;BME280;11052;43.338;25.502;2022-10-24T10:52:55;101120.09;;;24.56;45.64
2268;BME280;11052;43.338;25.502;2022-10-24T10:55:32;101113.59;;;24.60;46.15
2268;BME280;11052;43.338;25.502;2022-10-24T10:58:17;101114.63;;;24.81;46.37
2268;BME280;11052;43.338;25.502;2022-10-24T11:00:54;101102.88;;;24.97;46.54
2268;BME280;11052;43.338;25.502;2022-10-24T11:06:17;101099.53;;;24.71;45.86
2268;BME280;11052;43.338;25.502;2022-10-24T11:09:07;101093.53;;;24.91;47.50
2268;BME280;11052;43.338;25.502;2022-10-24T11:11:41;101093.34;;;25.05;47.98
2268;BME280;11052;43.338;25.502;2022-10-24T11:14:19;101093.69;;;25.23;47.16
2268;BME280;11052;43.338;25.502;2022-10-24T11:16:50;101097.94;;;25.03;45.24
2268;BME280;11052;43.338;25.502;2022-10-24T11:19:23;101098.78;;;25.04;45.57
2268;BME280;11052;43.338;25.502;2022-10-24T11:22:02;101095.44;;;24.78;45.54
2268;BME280;11052;43.338;25.502;2022-10-24T11:24:42;101090.50;;;24.84;47.55
2268;BME280;11052;43.338;25.502;2022-10-24T11:27:15;101092.47;;;24.94;45.83
2268;BME280;11052;43.338;25.502;2022-10-24T11:30:03;101084.72;;;24.79;47.58
2268;BME280;11052;43.338;25.502;2022-10-24T11:41:45;101065.06;;;24.71;47.09
2268;BME280;11052;43.338;25.502;2022-10-24T11:44:24;101069.28;;;24.73;47.83
2268;BME280;11052;43.338;25.502;2022-10-24T11:47:00;101070.50;;;24.80;47.48
2268;BME280;11052;43.338;25.502;2022-10-24T11:49:33;101066.75;;;24.83;46.74
2268;BME280;11052;43.338;25.502;2022-10-24T11:52:10;101059.28;;;24.77;47.48
2268;BME280;11052;43.338;25.502;2022-10-24T11:54:47;101061.44;;;24.72;47.32
2268;BME280;11052;43.338;25.502;2022-10-24T11:57:21;101058.53;;;24.75;46.31
2268;BME280;11052;43.338;25.502;2022-10-24T11:59:50;101062.28;;;24.72;46.75
2268;BME280;11052;43.338;25.502;2022-10-24T12:02:45;101052.41;;;24.86;47.72
2268;BME280;11052;43.338;25.502;2022-10-24T12:05:39;101058.06;;;24.81;46.79
2268;BME280;11052;43.338;25.502;2022-10-24T12:08:38;101053.03;;;24.89;45.97
2268;BME280;11052;43.338;25.502;2022-10-24T12:11:26;101043.41;;;24.99;45.40
2268;BME280;11052;43.338;25.502;2022-10-24T12:14:26;101037.72;;;24.93;44.75
2268;BME280;11052;43.338;25.502;2022-10-24T12:17:14;101039.16;;;24.86;45.22
2268;BME280;11052;43.338;25.502;2022-10-24T12:19:44;101028.31;;;24.89;45.57
2268;BME280;11052;43.338;25.502;2022-10-24T12:22:15;101031.78;;;24.89;45.48
2268;BME280;11052;43.338;25.502;2022-10-24T12:24:48;101021.66;;;24.83;46.28
2268;BME280;11052;43.338;25.502;2022-10-24T12:27:30;101028.91;;;24.81;45.80
2268;BME280;11052;43.338;25.502;2022-10-24T12:30:13;101031.66;;;24.68;46.85
2268;BME280;11052;43.338;25.502;2022-10-24T12:32:45;101027.31;;;24.67;47.36
2268;BME280;11052;43.338;25.502;2022-10-24T12:41:40;101025.50;;;24.68;46.70
2268;BME280;11052;43.338;25.502;2022-10-24T12:44:37;101025.50;;;24.68;46.75
2268;BME280;11052;43.338;25.502;2022-10-24T12:48:12;101020.69;;;24.84;47.20
2268;BME280;11052;43.338;25.502;2022-10-24T12:51:02;101022.84;;;24.68;47.12
2268;BME280;11052;43.338;25.502;2022-10-24T12:54:03;101022.00;;;24.67;47.22
2268;BME280;11052;43.338;25.502;2022-10-24T12:56:32;101015.84;;;24.56;46.64
2268;BME280;11052;43.338;25.502;2022-10-24T12:59:16;101020.31;;;24.66;48.44
2268;BME280;11052;43.338;25.502;2022-10-24T13:01:46;101020.19;;;24.57;48.63
2268;BME280;11052;43.338;25.502;2022-10-24T13:07:28;101016.44;;;24.48;49.83
2268;BME280;11052;43.338;25.502;2022-10-24T13:10:19;101014.50;;;24.50;50.13
2268;BME280;11052;43.338;25.502;2022-10-24T13:13:25;101016.56;;;24.58;49.98
2268;BME280;11052;43.338;25.502;2022-10-24T13:16:02;101012.13;;;24.58;49.91
2268;BME280;11052;43.338;25.502;2022-10-24T13:18:41;101001.63;;;24.45;50.81
2268;BME280;11052;43.338;25.502;2022-10-24T13:21:16;101004.16;;;24.47;51.27
2268;BME280;11052;43.338;25.502;2022-10-24T13:23:47;101003.91;;;24.50;51.77
2268;BME280;11052;43.338;25.502;2022-10-24T13:26:35;100998.59;;;24.39;52.23
2268;BME280;11052;43.338;25.502;2022-10-24T13:29:04;101000.88;;;24.43;51.84
2268;BME280;11052;43.338;25.502;2022-10-24T13:31:46;100988.84;;;24.39;51.93
2268;BME280;11052;43.338;25.502;2022-10-24T13:34:28;100993.03;;;24.31;52.39
2268;BME280;11052;43.338;25.502;2022-10-24T13:37:04;100990.63;;;24.39;52.02
2268;BME280;11052;43.338;25.502;2022-10-24T13:39:36;100985.69;;;24.34;52.50
2268;BME280;11052;43.338;25.502;2022-10-24T13:42:06;100981.00;;;24.38;51.63